Time;durP1;ratioP1;P1;durP2;ratioP2;P2;SDS_P1;SDS_P2;PMS_P1;PMS_P2;Temp;Humidity;BMP_temperature;BMP_pressure;BME280_temperature;BME280_humidity;BME280_pressure;Samples;Min_cycle;Max_cycle;Signal;HPM_P1;HPM_P2
2022/11/02 00:01:48;;;;;;;27.98;2.08;;;;;;;13.57;100.00;101137.34;5084053;28;20035;-85
2022/11/02 00:04:14;;;;;;;34.08;2.92;;;;;;;13.56;100.00;101136.50;5058433;28;20060;-86
2022/11/02 00:06:40;;;;;;;23.08;3.30;;;;;;;13.47;100.00;101131.78;5058312;28;20036;-87
2022/11/02 00:09:07;;;;;;;32.05;2.55;;;;;;;13.43;100.00;101113.81;5070693;28;20051;-86
2022/11/02 00:11:32;;;;;;;26.55;2.45;;;;;;;13.40;100.00;101116.81;5078478;28;20028;-86
2022/11/02 00:13:58;;;;;;;18.58;1.63;;;;;;;13.26;100.00;101100.63;5091012;28;20023;-86
2022/11/02 00:16:24;;;;;;;29.58;2.28;;;;;;;13.36;100.00;101116.22;5093126;28;20032;-86
2022/11/02 00:18:54;;;;;;;41.65;2.20;;;;;;;13.38;100.00;101124.31;5070048;28;20049;-86
2022/11/02 00:21:21;;;;;;;28.52;2.38;;;;;;;13.29;100.00;101106.72;5105209;28;20483;-86
2022/11/02 00:23:48;;;;;;;21.60;1.75;;;;;;;13.40;100.00;101128.69;5089682;28;20028;-86
2022/11/02 00:26:15;;;;;;;20.63;2.35;;;;;;;13.42;100.00;101118.41;5105645;28;20024;-86
2022/11/02 00:28:41;;;;;;;27.50;2.20;;;;;;;13.49;100.00;101135.25;5088515;28;20032;-86
2022/11/02 00:31:07;;;;;;;25.70;1.90;;;;;;;13.48;100.00;101136.28;5088565;28;20032;-85
2022/11/02 00:33:33;;;;;;;15.68;2.20;;;;;;;13.55;100.00;101122.88;5105533;28;20070;-86
2022/11/02 00:35:58;;;;;;;24.27;2.28;;;;;;;13.57;100.00;101112.59;5051189;28;20365;-86
2022/11/02 00:38:24;;;;;;;22.67;2.63;;;;;;;13.55;100.00;101131.13;5069071;28;20094;-87
2022/11/02 00:40:49;;;;;;;20.90;2.55;;;;;;;13.57;100.00;101124.47;5072803;28;20483;-86
2022/11/02 00:43:15;;;;;;;20.35;2.08;;;;;;;13.60;100.00;101135.19;5055045;28;20100;-85
2022/11/02 00:45:40;;;;;;;23.38;2.17;;;;;;;13.54;100.00;101110.09;5104801;28;20029;-85
2022/11/02 00:48:07;;;;;;;34.33;4.30;;;;;;;13.49;100.00;101118.75;5041428;28;20543;-86
2022/11/02 00:50:32;;;;;;;36.38;3.08;;;;;;;13.41;100.00;101108.44;5057980;28;20100;-86
2022/11/02 00:53:00;;;;;;;31.45;2.42;;;;;;;13.52;100.00;101115.75;5074938;28;20032;-85
2022/11/02 00:55:25;;;;;;;25.08;2.30;;;;;;;13.52;100.00;101117.63;5112747;28;20020;-86
2022/11/02 00:57:52;;;;;;;22.90;2.10;;;;;;;13.44;100.00;101100.91;5092245;28;20491;-85
2022/11/02 01:00:18;;;;;;;39.42;2.65;;;;;;;13.49;100.00;101115.13;5091819;28;20028;-86
2022/11/02 01:02:43;;;;;;;20.60;1.80;;;;;;;13.62;100.00;101125.94;5074543;28;20102;-85
2022/11/02 01:05:10;;;;;;;30.55;2.20;;;;;;;13.62;100.00;101115.81;5090272;28;20024;-86
2022/11/02 01:07:36;;;;;;;20.95;3.05;;;;;;;13.53;100.00;101119.38;5091263;28;20040;-86
2022/11/02 01:10:03;;;;;;;20.50;2.13;;;;;;;13.52;100.00;101123.13;5091905;28;20028;-85
2022/11/02 01:12:29;;;;;;;17.83;1.40;;;;;;;13.54;100.00;101140.38;5109096;28;20054;-85
2022/11/02 01:14:54;;;;;;;19.23;2.58;;;;;;;13.42;100.00;101120.31;5094177;28;20126;-86
2022/11/02 01:17:20;;;;;;;23.10;1.85;;;;;;;13.41;100.00;101108.44;5090991;28;20035;-87
2022/11/02 01:19:46;;;;;;;21.13;1.88;;;;;;;13.50;100.00;101133.41;5106701;28;20052;-85
2022/11/02 01:22:11;;;;;;;17.02;1.83;;;;;;;13.25;100.00;101121.75;5111159;28;20046;-86
2022/11/02 01:24:36;;;;;;;24.80;1.85;;;;;;;13.18;100.00;101106.75;5073946;28;20032;-85
2022/11/02 01:27:02;;;;;;;17.10;1.65;;;;;;;13.16;100.00;101130.78;5102598;28;20500;-83
2022/11/02 01:29:28;;;;;;;22.88;1.92;;;;;;;13.20;100.00;101135.03;5074276;28;20029;-84
2022/11/02 01:31:53;;;;;;;19.33;2.70;;;;;;;13.15;100.00;101135.41;5070440;28;20494;-84
2022/11/02 01:34:22;;;;;;;22.85;2.15;;;;;;;13.13;100.00;101144.78;5090764;28;20055;-86
2022/11/02 01:36:48;;;;;;;24.33;1.75;;;;;;;13.00;100.00;101144.94;5078717;28;20028;-86
2022/11/02 01:39:14;;;;;;;25.73;1.90;;;;;;;13.06;100.00;101155.44;5087549;28;20043;-85
2022/11/02 01:41:40;;;;;;;25.13;1.98;;;;;;;13.11;100.00;101149.53;5075671;28;20373;-85
2022/11/02 01:44:29;;;;;;;17.33;2.17;;;;;;;12.97;100.00;101153.44;5080223;28;20028;-84
2022/11/02 01:47:05;;;;;;;25.17;1.95;;;;;;;13.05;100.00;101149.06;5078917;28;20036;-84
2022/11/02 01:49:41;;;;;;;17.83;2.92;;;;;;;13.03;100.00;101150.19;5106282;28;20641;-86
2022/11/02 01:52:15;;;;;;;11.45;1.20;;;;;;;12.96;100.00;101149.84;5087768;28;20066;-86
2022/11/02 01:54:49;;;;;;;22.67;2.88;;;;;;;12.79;100.00;101145.78;5071517;28;20088;-87
2022/11/02 01:57:20;;;;;;;18.88;2.65;;;;;;;12.94;100.00;101162.84;5069647;28;20045;-87
2022/11/02 01:59:54;;;;;;;21.85;2.03;;;;;;;12.93;100.00;101160.22;5104980;28;20036;-86
2022/11/02 02:02:23;;;;;;;21.48;1.92;;;;;;;12.93;100.00;101163.84;5109005;28;20028;-86
2022/11/02 02:04:53;;;;;;;22.05;1.73;;;;;;;12.92;100.00;101163.97;5106420;28;20042;-85
2022/11/02 02:07:23;;;;;;;15.55;1.88;;;;;;;12.82;100.00;101162.00;5091677;28;20024;-86
2022/11/02 02:09:53;;;;;;;15.48;1.48;;;;;;;12.80;100.00;101174.97;5092737;28;20035;-85
2022/11/02 02:12:19;;;;;;;21.33;1.70;;;;;;;12.78;100.00;101181.63;5108043;28;20032;-85
2022/11/02 02:14:46;;;;;;;23.95;2.33;;;;;;;12.79;100.00;101169.63;5104098;28;20146;-87
2022/11/02 02:17:23;;;;;;;17.15;1.45;;;;;;;12.79;100.00;101173.25;5108569;28;20036;-86
2022/11/02 02:19:59;;;;;;;19.77;1.95;;;;;;;12.72;100.00;101176.63;5107278;28;20044;-86
2022/11/02 02:22:30;;;;;;;20.83;1.80;;;;;;;12.68;100.00;101178.78;5104758;28;20551;-86
2022/11/02 02:25:14;;;;;;;19.90;1.45;;;;;;;12.63;100.00;101176.41;5107286;28;20031;-86
2022/11/02 02:27:42;;;;;;;15.52;1.88;;;;;;;12.72;100.00;101176.63;5089194;28;20039;-85
2022/11/02 02:30:10;;;;;;;14.98;1.85;;;;;;;12.60;100.00;101179.41;5086875;28;20021;-87
2022/11/02 02:33:09;;;;;;;22.55;1.55;;;;;;;12.64;100.00;101180.91;5089431;28;20035;-86
2022/11/02 02:36:13;;;;;;;15.10;1.67;;;;;;;12.57;100.00;101182.38;5054432;28;20132;-86
2022/11/02 02:39:01;;;;;;;12.77;1.98;;;;;;;12.58;100.00;101186.03;5047785;28;20037;-86
2022/11/02 02:41:38;;;;;;;17.42;1.90;;;;;;;12.58;100.00;101175.91;5073757;28;20039;-87
2022/11/02 02:44:08;;;;;;;13.95;1.70;;;;;;;12.61;100.00;101188.50;5091003;28;20035;-87
2022/11/02 02:46:40;;;;;;;17.63;2.30;;;;;;;12.67;100.00;101172.41;5109469;28;20039;-87
2022/11/02 02:49:09;;;;;;;20.23;1.52;;;;;;;12.57;100.00;101181.53;5088220;28;20050;-87
2022/11/02 02:51:37;;;;;;;20.80;1.40;;;;;;;12.72;100.00;101190.38;5087040;28;20032;-87
2022/11/02 02:54:11;;;;;;;17.67;1.52;;;;;;;12.71;100.00;101189.50;5102605;28;20036;-87
2022/11/02 02:56:41;;;;;;;18.55;1.15;;;;;;;12.62;100.00;101188.38;5113267;28;20040;-86
2022/11/02 02:59:27;;;;;;;21.15;3.22;;;;;;;12.65;100.00;101192.75;5086863;28;20047;-86
2022/11/02 03:01:54;;;;;;;28.35;3.00;;;;;;;12.46;100.00;101174.16;5089724;28;20030;-86
2022/11/02 03:04:20;;;;;;;20.10;1.77;;;;;;;12.58;100.00;101197.88;5056632;28;20036;-87
2022/11/02 03:06:52;;;;;;;17.30;2.80;;;;;;;12.56;100.00;101197.16;5074476;28;20078;-87
2022/11/02 03:09:38;;;;;;;16.17;1.63;;;;;;;12.55;100.00;101200.03;5083939;28;20472;-87
2022/11/02 03:12:29;;;;;;;14.57;2.13;;;;;;;12.56;100.00;101209.97;5072798;28;20283;-86
2022/11/02 03:15:34;;;;;;;26.23;2.58;;;;;;;12.55;100.00;101200.88;5103911;28;20102;-85
2022/11/02 03:18:16;;;;;;;16.20;1.73;;;;;;;12.70;100.00;101198.75;5108078;28;20059;-86
2022/11/02 03:21:22;;;;;;;22.13;2.00;;;;;;;12.53;100.00;101189.16;5104766;28;20036;-86
2022/11/02 03:24:04;;;;;;;24.23;3.25;;;;;;;12.58;100.00;101197.88;5069856;28;20059;-85
2022/11/02 03:27:02;;;;;;;14.80;1.55;;;;;;;12.68;100.00;101198.88;5090759;28;20036;-85
2022/11/02 03:29:34;;;;;;;20.02;2.00;;;;;;;12.71;100.00;101189.50;5080071;28;20032;-86
2022/11/02 03:32:08;;;;;;;24.77;1.95;;;;;;;12.67;100.00;101199.00;5099278;28;20058;-86
2022/11/02 03:34:39;;;;;;;11.82;1.35;;;;;;;12.78;100.00;101225.59;5105520;28;20039;-86
2022/11/02 03:37:21;;;;;;;18.88;1.98;;;;;;;12.63;100.00;101230.47;5106659;28;20038;-86
2022/11/02 03:39:54;;;;;;;22.35;1.67;;;;;;;12.67;100.00;101230.09;5087745;28;20041;-86
2022/11/02 03:42:26;;;;;;;15.50;1.83;;;;;;;12.54;100.00;101233.97;5090522;28;20046;-87
2022/11/02 03:44:57;;;;;;;18.10;2.00;;;;;;;12.37;100.00;101241.69;5089767;28;20048;-85
2022/11/02 03:47:25;;;;;;;10.90;2.17;;;;;;;12.41;100.00;101224.00;5083318;28;20023;-85
2022/11/02 03:49:54;;;;;;;22.35;2.03;;;;;;;12.59;100.00;101243.59;5091549;28;20048;-86
2022/11/02 03:52:24;;;;;;;22.42;1.88;;;;;;;12.64;100.00;101238.59;5089163;28;20115;-86
2022/11/02 03:55:08;;;;;;;20.75;1.55;;;;;;;12.62;100.00;101237.81;5080423;28;20040;-86
2022/11/02 03:57:43;;;;;;;11.63;2.55;;;;;;;12.48;100.00;101235.34;5074850;28;20119;-86
2022/11/02 04:00:34;;;;;;;28.92;1.67;;;;;;;12.34;100.00;101230.09;5087769;28;20055;-85
2022/11/02 04:03:03;;;;;;;18.13;1.77;;;;;;;12.56;100.00;101243.84;5083943;28;20043;-85
2022/11/02 04:05:31;;;;;;;26.13;1.80;;;;;;;12.44;100.00;101242.94;5076055;28;20035;-87
2022/11/02 04:16:10;;;;;;;28.02;1.75;;;;;;;12.35;100.00;101248.31;5110838;28;20032;-87
2022/11/02 04:21:20;;;;;;;25.20;1.90;;;;;;;12.25;100.00;101268.28;5120749;28;20030;-86
2022/11/02 04:26:29;;;;;;;27.83;2.83;;;;;;;12.29;100.00;101286.25;5101314;28;20028;-86
2022/11/02 04:28:55;;;;;;;27.00;1.95;;;;;;;12.29;100.00;101286.25;5080205;28;20043;-86
2022/11/02 04:31:21;;;;;;;23.60;1.88;;;;;;;12.29;100.00;101285.38;5098925;28;20056;-86
2022/11/02 04:33:46;;;;;;;30.02;1.88;;;;;;;12.37;100.00;101291.13;5082661;28;20028;-87
2022/11/02 04:36:12;;;;;;;20.77;3.13;;;;;;;12.41;100.00;101298.13;5066821;28;20028;-84
2022/11/02 04:38:40;;;;;;;36.13;3.35;;;;;;;12.35;100.00;101289.50;5080927;28;20123;-86
2022/11/02 04:44:14;;;;;;;20.48;1.23;;;;;;;12.22;100.00;101298.72;5090641;28;20032;-86
2022/11/02 04:46:42;;;;;;;24.42;2.65;;;;;;;12.15;100.00;101286.47;5083748;28;20039;-86
2022/11/02 04:49:09;;;;;;;22.63;2.28;;;;;;;12.08;100.00;101283.31;5100395;28;20024;-85
2022/11/02 04:51:41;;;;;;;21.83;1.98;;;;;;;12.09;100.00;101292.44;5116051;28;20056;-86
2022/11/02 04:54:09;;;;;;;27.50;1.75;;;;;;;11.95;100.00;101294.41;5092151;28;20032;-86
2022/11/02 04:56:35;;;;;;;23.42;2.10;;;;;;;12.11;100.00;101304.19;5059522;28;20060;-86
2022/11/02 04:59:00;;;;;;;21.08;3.15;;;;;;;12.13;100.00;101318.66;5093758;28;20028;-84
2022/11/02 05:01:28;;;;;;;21.58;2.20;;;;;;;12.08;100.00;101312.66;5068130;28;20032;-86
2022/11/02 05:03:54;;;;;;;25.27;1.73;;;;;;;12.18;100.00;101329.28;5079514;28;20165;-85
2022/11/02 05:06:21;;;;;;;25.42;3.53;;;;;;;12.16;100.00;101323.03;5075451;28;20110;-85
2022/11/02 05:08:50;;;;;;;20.92;1.30;;;;;;;12.12;100.00;101336.13;5095701;28;20054;-86
2022/11/02 05:11:16;;;;;;;32.72;3.40;;;;;;;12.16;100.00;101334.00;5113423;28;20099;-86
2022/11/02 05:13:43;;;;;;;28.30;3.25;;;;;;;12.01;100.00;101345.19;5077193;28;20028;-86
2022/11/02 05:16:14;;;;;;;26.48;2.17;;;;;;;12.04;100.00;101350.44;5104892;28;20043;-86
2022/11/02 05:18:40;;;;;;;21.83;1.65;;;;;;;12.10;100.00;101349.97;5084937;28;20044;-86
2022/11/02 05:21:09;;;;;;;15.82;1.98;;;;;;;12.08;100.00;101340.97;5079183;28;20046;-87
2022/11/02 05:23:34;;;;;;;32.72;2.10;;;;;;;12.07;100.00;101335.63;5068512;28;20042;-87
2022/11/02 05:26:05;;;;;;;21.35;2.05;;;;;;;12.10;100.00;101352.72;5088556;28;20115;-87
2022/11/02 05:28:32;;;;;;;20.35;1.50;;;;;;;12.13;100.00;101366.22;5106593;28;20036;-88
2022/11/02 05:30:59;;;;;;;17.10;1.77;;;;;;;12.06;100.00;101361.31;5092470;28;20028;-88
2022/11/02 05:33:26;;;;;;;25.65;1.70;;;;;;;12.04;100.00;101375.16;5096427;28;20035;-87
2022/11/02 05:35:55;;;;;;;18.52;1.48;;;;;;;12.08;100.00;101375.78;5096490;28;20039;-87
2022/11/02 05:38:24;;;;;;;20.20;2.75;;;;;;;12.07;100.00;101380.41;5096447;28;20047;-87
2022/11/02 05:40:55;;;;;;;23.70;1.90;;;;;;;12.15;100.00;101388.06;5097807;28;20031;-86
2022/11/02 05:43:21;;;;;;;19.25;1.40;;;;;;;12.12;100.00;101375.44;5099601;28;20044;-86
2022/11/02 05:45:52;;;;;;;23.17;1.40;;;;;;;12.30;100.00;101397.84;5115774;28;20042;-85
2022/11/02 05:48:17;;;;;;;24.10;1.98;;;;;;;12.27;100.00;101398.06;5096189;28;20043;-86
2022/11/02 05:50:42;;;;;;;29.65;2.08;;;;;;;12.45;100.00;101412.22;5069906;28;20032;-87
2022/11/02 05:53:08;;;;;;;26.73;2.45;;;;;;;12.36;100.00;101412.06;5096783;28;20052;-84
2022/11/02 05:55:34;;;;;;;15.32;2.25;;;;;;;12.19;100.00;101394.19;5081123;28;20035;-86
2022/11/02 05:58:00;;;;;;;19.35;1.67;;;;;;;12.13;100.00;101393.66;5096922;28;20045;-86
2022/11/02 06:00:25;;;;;;;15.77;1.67;;;;;;;12.09;100.00;101391.25;5079125;28;20027;-85
2022/11/02 06:02:56;;;;;;;23.73;2.22;;;;;;;12.22;100.00;101441.47;5052842;28;20036;-85
2022/11/02 06:05:22;;;;;;;22.20;1.50;;;;;;;12.00;100.00;101391.97;5073865;28;20115;-85
2022/11/02 06:07:47;;;;;;;15.48;1.20;;;;;;;12.02;100.00;101437.53;5084607;28;20069;-85
2022/11/02 06:10:20;;;;;;;28.13;2.53;;;;;;;11.95;100.00;101422.50;5086983;28;20039;-87
2022/11/02 06:12:45;;;;;;;21.75;1.83;;;;;;;12.02;100.00;101447.59;5095958;28;20032;-84
2022/11/02 06:15:25;;;;;;;20.63;1.20;;;;;;;11.93;100.00;101455.53;5094821;28;20111;-87
2022/11/02 06:17:53;;;;;;;28.10;2.08;;;;;;;11.85;100.00;101440.63;5095808;28;20108;-86
2022/11/02 06:20:22;;;;;;;27.25;2.05;;;;;;;11.88;100.00;101440.41;5112284;28;20052;-87
2022/11/02 06:22:48;;;;;;;17.42;1.48;;;;;;;11.88;100.00;101465.97;5092384;28;20024;-86
2022/11/02 06:25:21;;;;;;;21.70;2.13;;;;;;;11.51;100.00;101413.84;5077484;28;20054;-85
2022/11/02 06:27:51;;;;;;;;;;;;;;;11.75;100.00;101467.88;5112743;28;20035;-87
2022/11/02 06:30:17;;;;;;;21.20;1.35;;;;;;;11.75;100.00;101462.38;5093290;28;19919;-85
2022/11/02 06:32:47;;;;;;;29.05;1.83;;;;;;;11.82;100.00;101474.63;5099239;28;20032;-86
2022/11/02 06:35:17;;;;;;;27.33;2.63;;;;;;;11.73;100.00;101486.31;5073571;28;20140;-86
2022/11/02 06:37:44;;;;;;;20.38;1.48;;;;;;;11.57;100.00;101468.22;5089878;28;20055;-86
2022/11/02 06:40:15;;;;;;;19.52;1.20;;;;;;;11.71;100.00;101485.56;5103612;28;20032;-86
2022/11/02 06:42:40;;;;;;;18.70;1.40;;;;;;;11.73;100.00;101497.28;5085357;28;20028;-86
2022/11/02 06:45:10;;;;;;;24.10;1.88;;;;;;;11.74;100.00;101508.16;5046754;28;20029;-87
2022/11/02 06:47:37;;;;;;;15.02;1.55;;;;;;;11.64;100.00;101493.38;5106380;28;20470;-85
2022/11/02 06:50:05;;;;;;;23.05;2.72;;;;;;;11.43;100.00;101498.56;5070503;28;20028;-86
2022/11/02 06:52:34;;;;;;;17.15;2.75;;;;;;;11.52;100.00;101519.81;5071873;28;20047;-84
2022/11/02 06:54:59;;;;;;;17.52;1.08;;;;;;;11.48;100.00;101504.56;5088955;28;20487;-85
2022/11/02 06:57:25;;;;;;;17.52;2.03;;;;;;;11.44;100.00;101524.09;5086713;28;20040;-85
2022/11/02 06:59:50;;;;;;;21.27;2.03;;;;;;;11.50;100.00;101530.00;5077015;28;20477;-84
2022/11/02 07:02:16;;;;;;;25.80;2.28;;;;;;;11.53;100.00;101537.16;5055208;28;20031;-84
2022/11/02 07:04:48;;;;;;;25.33;1.40;;;;;;;11.52;100.00;101536.25;5054606;28;20032;-86
2022/11/02 07:07:14;;;;;;;21.90;2.90;;;;;;;11.52;100.00;101543.63;5081350;28;20231;-85
2022/11/02 07:09:39;;;;;;;21.90;3.28;;;;;;;11.32;100.00;101532.22;5061239;28;20032;-85
2022/11/02 07:12:05;;;;;;;15.73;1.58;;;;;;;11.46;100.00;101553.19;5071922;28;20040;-87
2022/11/02 07:14:33;;;;;;;27.20;2.25;;;;;;;11.47;100.00;101560.41;5103128;28;20043;-84
2022/11/02 07:16:59;;;;;;;17.95;1.85;;;;;;;11.47;100.00;101576.84;5085715;28;20381;-86
2022/11/02 07:19:24;;;;;;;18.17;2.08;;;;;;;11.43;100.00;101556.13;5082398;28;20044;-86
2022/11/02 07:21:50;;;;;;;17.17;1.67;;;;;;;11.57;100.00;101585.28;5070739;28;20043;-85
2022/11/02 07:24:15;;;;;;;17.27;1.77;;;;;;;11.64;100.00;101588.47;5106090;28;20038;-85
2022/11/02 07:26:40;;;;;;;22.92;1.60;;;;;;;11.76;100.00;101598.56;5099363;28;20032;-86
2022/11/02 07:29:07;;;;;;;26.45;3.08;;;;;;;11.85;100.00;101611.59;5075295;28;20060;-86
2022/11/02 07:31:32;;;;;;;30.77;1.80;;;;;;;11.84;100.00;101607.13;5086213;28;20036;-85
2022/11/02 07:33:57;;;;;;;16.10;1.75;;;;;;;12.00;100.00;101617.00;5086259;28;20058;-85
2022/11/02 07:36:23;;;;;;;25.50;1.95;;;;;;;11.99;100.00;101612.53;5081613;28;20111;-85
2022/11/02 07:38:49;;;;;;;19.88;1.88;;;;;;;12.09;100.00;101630.94;5102121;28;20181;-85
2022/11/02 07:41:14;;;;;;;18.70;1.77;;;;;;;11.99;100.00;101631.75;5081648;28;20191;-83
2022/11/02 07:43:40;;;;;;;13.77;1.80;;;;;;;12.07;100.00;101632.06;5068580;28;20064;-85
2022/11/02 07:46:05;;;;;;;15.63;1.42;;;;;;;11.88;100.00;101605.91;5086249;28;20395;-84
2022/11/02 07:48:31;;;;;;;20.38;1.52;;;;;;;12.06;100.00;101633.91;5072312;28;20036;-83
2022/11/02 07:50:59;;;;;;;22.13;1.50;;;;;;;12.17;100.00;101638.63;5053116;28;20032;-83
2022/11/02 07:53:25;;;;;;;17.08;1.75;;;;;;;12.24;100.00;101634.44;5104453;28;20061;-84
2022/11/02 07:55:50;;;;;;;27.88;2.88;;;;;;;12.16;100.00;101636.84;5067566;28;20029;-84
2022/11/02 07:58:16;;;;;;;19.10;1.67;;;;;;;12.20;100.00;101643.91;5087479;28;20036;-86
2022/11/02 08:00:42;;;;;;;33.33;4.75;;;;;;;12.34;100.00;101647.50;5070833;28;20028;-85
2022/11/02 08:03:08;;;;;;;17.38;2.30;;;;;;;12.46;100.00;101643.81;5104329;28;20034;-85
2022/11/02 08:05:38;;;;;;;18.95;1.75;;;;;;;12.13;100.00;101653.56;5103908;28;20053;-85
2022/11/02 08:08:08;;;;;;;26.67;2.58;;;;;;;12.38;100.00;101669.13;5083224;28;20041;-84
2022/11/02 08:10:35;;;;;;;19.83;1.67;;;;;;;12.41;100.00;101668.91;5099573;28;20028;-85
2022/11/02 08:13:00;;;;;;;21.42;2.72;;;;;;;12.35;100.00;101673.94;5087322;28;20078;-86
2022/11/02 08:15:26;;;;;;;18.35;1.73;;;;;;;12.81;100.00;101676.03;5089279;28;20032;-86
2022/11/02 08:18:15;;;;;;;22.95;2.30;;;;;;;12.76;100.00;101667.25;5071761;28;20085;-85
2022/11/02 08:20:41;;;;;;;29.27;2.47;;;;;;;12.64;100.00;101664.44;5080842;28;20449;-84
2022/11/02 08:23:09;;;;;;;18.90;1.70;;;;;;;12.63;100.00;101670.91;5070470;28;20065;-85
2022/11/02 08:25:35;;;;;;;20.20;1.67;;;;;;;12.65;100.00;101673.56;5087871;28;20049;-84
2022/11/02 08:28:01;;;;;;;20.27;1.88;;;;;;;12.75;100.00;101674.59;5106700;28;20042;-84
2022/11/02 08:30:28;;;;;;;17.88;2.67;;;;;;;12.85;100.00;101675.69;5068844;28;20032;-84
2022/11/02 08:32:54;;;;;;;20.95;1.63;;;;;;;12.65;100.00;101659.81;5102278;28;20059;-84
2022/11/02 08:35:20;;;;;;;19.30;2.30;;;;;;;12.88;100.00;101671.81;5103024;28;20055;-85
2022/11/02 08:37:53;;;;;;;14.32;1.55;;;;;;;12.96;100.00;101685.84;5086673;28;20096;-84
2022/11/02 08:40:18;;;;;;;36.70;2.10;;;;;;;12.94;100.00;101681.47;5087411;28;20063;-85
2022/11/02 08:42:44;;;;;;;31.25;2.80;;;;;;;12.83;100.00;101682.28;5088721;28;20391;-85
2022/11/02 08:45:10;;;;;;;28.42;2.42;;;;;;;13.10;100.00;101695.81;5072085;28;20034;-86
2022/11/02 08:47:41;;;;;;;25.85;1.90;;;;;;;13.08;100.00;101681.28;5102183;28;20040;-85
2022/11/02 08:50:09;;;;;;;16.73;1.97;;;;;;;13.05;100.00;101684.25;5102865;28;20455;-85
2022/11/02 08:52:38;;;;;;;26.67;2.17;;;;;;;13.34;100.00;101683.94;5105301;28;20031;-84
2022/11/02 08:55:04;;;;;;;30.45;2.45;;;;;;;13.37;100.00;101701.06;5088417;28;20033;-85
2022/11/02 08:57:29;;;;;;;18.35;1.98;;;;;;;13.73;100.00;101701.94;5089269;28;20036;-85
2022/11/02 08:59:55;;;;;;;22.52;2.65;;;;;;;13.56;100.00;101716.13;5088675;28;20162;-85
2022/11/02 09:02:21;;;;;;;20.42;2.45;;;;;;;13.69;100.00;101707.81;5067958;28;20112;-85
2022/11/02 09:04:46;;;;;;;18.77;2.08;;;;;;;13.86;100.00;101710.13;5068524;28;20044;-86
2022/11/02 09:07:12;;;;;;;26.15;2.40;;;;;;;13.78;100.00;101709.84;5065724;28;20066;-85
2022/11/02 09:09:37;;;;;;;17.83;1.70;;;;;;;13.85;100.00;101705.59;5062773;28;20028;-85
2022/11/02 09:12:03;;;;;;;17.92;1.83;;;;;;;14.10;100.00;101707.28;5075909;28;20039;-86
2022/11/02 09:14:29;;;;;;;26.52;2.15;;;;;;;14.12;100.00;101710.78;5096152;28;20373;-85
2022/11/02 09:16:55;;;;;;;24.65;2.28;;;;;;;14.47;100.00;101718.03;5094313;28;20067;-85
2022/11/02 09:19:21;;;;;;;26.55;3.08;;;;;;;13.91;100.00;101709.75;5065338;28;20063;-85
2022/11/02 09:21:48;;;;;;;20.05;1.92;;;;;;;14.10;100.00;101704.53;5070622;28;20534;-85
2022/11/02 09:24:14;;;;;;;29.05;1.80;;;;;;;14.15;100.00;101717.94;5088330;28;20392;-85
2022/11/02 09:26:40;;;;;;;25.00;2.22;;;;;;;14.55;100.00;101716.56;5056971;28;20029;-84
2022/11/02 09:29:05;;;;;;;34.63;2.63;;;;;;;14.43;100.00;101715.66;5091010;28;20061;-86
2022/11/02 09:31:31;;;;;;;19.17;2.22;;;;;;;14.41;100.00;101721.28;5075101;28;20032;-85
2022/11/02 09:33:56;;;;;;;34.25;3.20;;;;;;;14.27;100.00;101729.84;5072209;28;20052;-85
2022/11/02 09:36:22;;;;;;;19.70;1.77;;;;;;;14.34;100.00;101737.44;5072781;28;20088;-85
2022/11/02 09:38:48;;;;;;;24.13;2.05;;;;;;;14.19;100.00;101746.97;5065983;28;20123;-85
2022/11/02 09:41:17;;;;;;;21.83;2.05;;;;;;;14.11;100.00;101738.44;5075822;28;20043;-84
2022/11/02 09:44:16;;;;;;;25.25;1.95;;;;;;;14.26;100.00;101736.31;5089191;28;20043;-86
2022/11/02 09:46:44;;;;;;;24.23;1.95;;;;;;;14.26;100.00;101739.94;5102236;28;20097;-84
2022/11/02 09:49:15;;;;;;;12.50;1.35;;;;;;;13.65;100.00;101740.19;5105135;28;20032;-85
2022/11/02 09:51:47;;;;;;;23.52;1.63;;;;;;;14.04;100.00;101743.56;5088587;28;20060;-85
2022/11/02 09:54:24;;;;;;;21.85;1.58;;;;;;;14.42;100.00;101752.50;5107422;28;20031;-86
2022/11/02 09:56:51;;;;;;;28.48;2.30;;;;;;;14.32;100.00;101738.59;5110252;28;20032;-86
2022/11/02 09:59:23;;;;;;;23.13;1.58;;;;;;;14.52;100.00;101743.34;5108910;28;20008;-84
2022/11/02 10:02:04;;;;;;;24.05;2.25;;;;;;;14.66;100.00;101741.41;5109399;28;20046;-85
2022/11/02 10:05:05;;;;;;;19.33;2.03;;;;;;;14.47;100.00;101745.59;5108179;28;20035;-85
2022/11/02 10:07:59;;;;;;;24.27;2.40;;;;;;;14.60;100.00;101750.16;5092909;28;20035;-83
2022/11/02 10:10:38;;;;;;;17.63;1.77;;;;;;;14.80;100.00;101751.25;5071996;28;20025;-84
2022/11/02 10:13:20;;;;;;;25.10;2.67;;;;;;;14.94;100.00;101763.88;5089714;28;20039;-84
2022/11/02 10:15:55;;;;;;;19.17;2.20;;;;;;;15.47;100.00;101760.41;5090819;28;20032;-86
2022/11/02 10:18:26;;;;;;;13.07;1.58;;;;;;;14.87;100.00;101769.03;5108220;28;20032;-84
2022/11/02 10:20:58;;;;;;;26.83;2.08;;;;;;;15.08;100.00;101769.13;5091548;28;20047;-84
2022/11/02 10:23:25;;;;;;;25.95;2.53;;;;;;;15.34;100.00;101763.31;5087549;28;20120;-85
2022/11/02 10:25:51;;;;;;;26.90;2.40;;;;;;;15.35;100.00;101767.84;5083066;28;20020;-84
2022/11/02 10:28:25;;;;;;;16.70;1.42;;;;;;;15.49;100.00;101775.78;5091406;28;20046;-84
2022/11/02 10:30:52;;;;;;;22.27;1.92;;;;;;;15.55;100.00;101779.94;5102456;28;20066;-84
2022/11/02 10:33:24;;;;;;;24.20;1.88;;;;;;;15.77;100.00;101784.50;5071638;28;20040;-85
2022/11/02 10:35:54;;;;;;;18.50;2.70;;;;;;;15.99;100.00;101778.88;5088387;28;20423;-84
2022/11/02 10:38:32;;;;;;;25.58;2.00;;;;;;;15.69;100.00;101785.16;5105049;28;20032;-85
2022/11/02 10:41:13;;;;;;;23.35;2.13;;;;;;;15.61;100.00;101794.09;5090411;28;20032;-84
2022/11/02 10:44:22;;;;;;;17.08;2.00;;;;;;;15.73;100.00;101794.91;5090978;28;20028;-84
2022/11/02 10:46:50;;;;;;;22.05;1.80;;;;;;;16.04;100.00;101794.19;5106412;28;20032;-85
2022/11/02 10:49:16;;;;;;;20.63;1.77;;;;;;;15.98;100.00;101785.38;5109349;28;20035;-86
2022/11/02 10:51:41;;;;;;;19.08;1.83;;;;;;;16.07;100.00;101782.84;5108229;28;20028;-85
2022/11/02 10:54:15;;;;;;;28.23;2.55;;;;;;;15.90;100.00;101801.75;5041658;28;20376;-85
2022/11/02 10:56:42;;;;;;;23.88;2.67;;;;;;;16.01;100.00;101783.41;5070449;28;20039;-85
2022/11/02 10:59:12;;;;;;;27.63;2.50;;;;;;;16.05;100.00;101793.16;5054892;28;20028;-85
2022/11/02 11:01:45;;;;;;;22.27;2.10;;;;;;;15.95;100.00;101795.84;5097810;28;20028;-86
2022/11/02 11:04:41;;;;;;;24.10;2.00;;;;;;;15.60;100.00;101777.66;5090665;28;20032;-85
2022/11/02 11:07:18;;;;;;;21.58;1.88;;;;;;;15.74;100.00;101784.72;5096375;28;20044;-85
2022/11/02 11:09:44;;;;;;;20.10;2.45;;;;;;;15.77;100.00;101801.97;5109385;28;20083;-84
2022/11/02 11:12:21;;;;;;;20.55;1.50;;;;;;;15.71;100.00;101791.41;5101873;28;20553;-86
2022/11/02 11:14:56;;;;;;;18.25;2.10;;;;;;;15.59;100.00;101804.41;5107139;28;20036;-85
2022/11/02 11:17:33;;;;;;;14.15;1.70;;;;;;;15.80;100.00;101798.91;5108191;28;20028;-84
2022/11/02 11:20:00;;;;;;;19.60;1.95;;;;;;;15.57;100.00;101809.13;5122052;28;20579;-84
2022/11/02 11:22:28;;;;;;;15.05;1.88;;;;;;;15.54;100.00;101808.53;5073804;28;20043;-85
2022/11/02 11:25:23;;;;;;;14.85;1.63;;;;;;;15.33;100.00;101808.47;5090453;28;20030;-84
2022/11/02 11:27:53;;;;;;;14.63;1.48;;;;;;;15.40;100.00;101805.06;5107368;28;20027;-85
2022/11/02 11:30:36;;;;;;;18.10;1.35;;;;;;;15.44;100.00;101795.50;5090341;28;20035;-85
2022/11/02 11:33:05;;;;;;;20.90;1.77;;;;;;;15.39;100.00;101806.06;5089225;28;20091;-84
2022/11/02 11:35:37;;;;;;;21.60;2.15;;;;;;;15.42;100.00;101803.03;5101465;28;20044;-84
2022/11/02 11:38:25;;;;;;;17.83;1.65;;;;;;;15.61;100.00;101798.75;5074509;28;20048;-85
2022/11/02 11:40:54;;;;;;;14.60;1.50;;;;;;;15.41;100.00;101795.78;5109965;28;20041;-84